createdAt,value
2018-01-08T00:02:20.749Z,9.40
2018-01-08T00:04:48.445Z,11.27
2018-01-08T00:07:16.022Z,9.25
2018-01-08T00:09:43.694Z,9.15
2018-01-08T00:12:11.242Z,9.45
2018-01-08T00:14:38.735Z,9.50
2018-01-08T00:17:06.214Z,9.50
2018-01-08T00:19:33.733Z,9.80
2018-01-08T00:22:01.369Z,8.95
2018-01-08T00:24:29.028Z,9.65
2018-01-08T00:26:57.341Z,8.55
2018-01-08T00:29:24.822Z,9.77
2018-01-08T00:31:52.310Z,9.50
2018-01-08T00:34:19.890Z,10.23
2018-01-08T00:36:47.462Z,9.98
2018-01-08T00:39:15.117Z,10.50
2018-01-08T00:41:42.698Z,10.35
2018-01-08T00:44:10.183Z,9.82
2018-01-08T00:46:37.673Z,8.68
2018-01-08T00:49:05.947Z,9.10
2018-01-08T00:51:33.433Z,9.82
2018-01-08T00:54:00.957Z,9.20
2018-01-08T00:56:28.492Z,9.80
2018-01-08T00:58:56.742Z,9.48
2018-01-08T01:01:24.234Z,10.25
2018-01-08T01:03:51.747Z,9.82
2018-01-08T01:06:19.221Z,9.70
2018-01-08T01:08:46.706Z,8.98
2018-01-08T01:11:14.314Z,9.18
2018-01-08T01:13:41.810Z,10.32
2018-01-08T01:16:09.290Z,9.32
2018-01-08T01:18:36.795Z,9.55
2018-01-08T01:21:04.282Z,10.00
2018-01-08T01:23:31.774Z,9.82
2018-01-08T01:25:59.294Z,10.52
2018-01-08T01:28:26.820Z,10.45
2018-01-08T01:30:54.290Z,9.75
2018-01-08T01:33:23.462Z,9.80
2018-01-08T01:35:51.713Z,9.93
2018-01-08T01:38:19.198Z,11.27
2018-01-08T01:40:46.782Z,10.05
2018-01-08T01:43:15.283Z,11.20
2018-01-08T01:45:42.802Z,10.38
2018-01-08T01:48:10.483Z,11.35
2018-01-08T01:50:39.258Z,10.50
2018-01-08T01:53:07.536Z,11.30
2018-01-08T01:55:35.799Z,10.55
2018-01-08T01:58:03.274Z,12.02
2018-01-08T02:00:31.529Z,10.98
2018-01-08T02:02:59.060Z,10.57
2018-01-08T02:05:26.554Z,10.27
2018-01-08T02:07:54.806Z,11.30
2018-01-08T02:10:22.415Z,10.10
2018-01-08T02:12:50.166Z,10.60
2018-01-08T02:15:17.892Z,11.48
2018-01-08T02:17:46.349Z,11.45
2018-01-08T02:20:13.857Z,13.18
2018-01-08T02:22:41.338Z,11.55
2018-01-08T02:25:08.850Z,12.95
2018-01-08T02:27:36.456Z,11.30
2018-01-08T02:30:04.190Z,11.80
2018-01-08T02:32:31.962Z,11.57
2018-01-08T02:34:59.799Z,12.25
2018-01-08T02:37:27.304Z,12.43
2018-01-08T02:39:55.562Z,12.82
2018-01-08T02:42:23.037Z,10.70
2018-01-08T02:44:50.524Z,11.75
2018-01-08T02:47:18.034Z,13.13
2018-01-08T02:49:45.516Z,12.90
2018-01-08T02:52:13.765Z,12.88
2018-01-08T02:54:41.327Z,13.18
2018-01-08T02:57:09.616Z,13.93
2018-01-08T02:59:37.886Z,14.10
2018-01-08T03:02:06.053Z,13.65
2018-01-08T03:04:34.534Z,15.30
2018-01-08T03:07:02.959Z,14.55
2018-01-08T03:09:30.482Z,13.85
2018-01-08T03:11:57.962Z,13.75
2018-01-08T03:14:26.259Z,12.88
2018-01-08T03:16:53.774Z,13.55
2018-01-08T03:19:21.321Z,14.38
2018-01-08T03:21:48.808Z,14.75
2018-01-08T03:24:17.086Z,14.30
2018-01-08T03:26:45.463Z,15.85
2018-01-08T03:29:12.990Z,15.70
2018-01-08T03:31:40.726Z,14.15
2018-01-08T03:34:09.340Z,16.10
2018-01-08T03:36:36.818Z,15.38
2018-01-08T03:39:05.302Z,16.30
2018-01-08T03:41:32.806Z,16.23
2018-01-08T03:44:00.290Z,15.98
2018-01-08T03:46:27.957Z,17.45
2018-01-08T03:48:55.821Z,15.43
2018-01-08T03:51:23.350Z,16.35
2018-01-08T03:53:50.870Z,17.65
2018-01-08T03:56:19.129Z,17.00
2018-01-08T03:58:46.605Z,17.75
2018-01-08T04:01:15.086Z,15.88
2018-01-08T04:03:43.405Z,17.60
2018-01-08T04:06:10.993Z,16.33
2018-01-08T04:08:39.310Z,17.33
2018-01-08T04:11:06.797Z,17.27
2018-01-08T04:13:34.284Z,14.85
2018-01-08T04:16:01.966Z,16.33
2018-01-08T04:18:29.510Z,17.52
2018-01-08T04:20:57.015Z,16.77
2018-01-08T04:23:25.278Z,17.80
2018-01-08T04:25:53.704Z,17.35
2018-01-08T04:28:21.353Z,16.85
2018-01-08T04:30:48.900Z,15.63
2018-01-08T04:33:16.394Z,16.45
2018-01-08T04:35:44.065Z,15.55
2018-01-08T04:38:11.599Z,16.75
2018-01-08T04:40:39.082Z,17.12
2018-01-08T04:43:06.569Z,17.50
2018-01-08T04:45:34.839Z,16.15
2018-01-08T04:48:02.506Z,15.95
2018-01-08T04:50:30.094Z,16.60
2018-01-08T04:52:57.602Z,16.20
2018-01-08T04:55:25.083Z,16.65
2018-01-08T04:57:52.674Z,15.70
2018-01-08T05:00:20.942Z,15.50
2018-01-08T05:02:49.197Z,14.85
2018-01-08T05:05:17.450Z,16.17
2018-01-08T05:07:45.187Z,14.40
2018-01-08T05:10:12.691Z,17.10
2018-01-08T05:12:40.258Z,16.08
2018-01-08T05:15:07.763Z,16.40
2018-01-08T05:17:35.521Z,15.90
2018-01-08T05:20:03.039Z,14.05
2018-01-08T05:22:30.740Z,16.42
2018-01-08T05:24:58.381Z,15.65
2018-01-08T05:27:25.930Z,16.10
2018-01-08T05:29:53.463Z,15.82
2018-01-08T05:32:20.950Z,16.67
2018-01-08T05:34:49.214Z,17.30
2018-01-08T05:37:16.826Z,15.95
2018-01-08T05:39:44.479Z,15.05
2018-01-08T05:42:11.965Z,15.63
2018-01-08T05:44:39.622Z,16.50
2018-01-08T05:47:07.230Z,14.52
2018-01-08T05:49:34.758Z,16.15
2018-01-08T05:52:02.262Z,16.67
2018-01-08T05:54:29.750Z,15.38
2018-01-08T05:56:57.238Z,16.67
2018-01-08T05:59:25.028Z,14.70
2018-01-08T06:01:52.555Z,16.62
2018-01-08T06:04:20.129Z,16.00
2018-01-08T06:06:47.634Z,14.50
2018-01-08T06:09:15.132Z,15.75
2018-01-08T06:11:42.614Z,16.55
2018-01-08T06:14:10.126Z,14.95
2018-01-08T06:16:37.762Z,16.67
2018-01-08T06:19:05.257Z,15.32
2018-01-08T06:21:32.750Z,14.57
2018-01-08T06:24:00.315Z,15.52
2018-01-08T06:26:28.566Z,15.63
2018-01-08T06:28:56.084Z,15.45
2018-01-08T06:31:23.578Z,15.60
2018-01-08T06:33:51.061Z,16.15
2018-01-08T06:36:18.602Z,15.70
2018-01-08T06:38:46.090Z,15.00
2018-01-08T06:41:14.402Z,16.67
2018-01-08T06:43:41.996Z,16.17
2018-01-08T06:46:09.481Z,15.27
2018-01-08T06:48:37.830Z,16.87
2018-01-08T06:51:05.318Z,16.12
2018-01-08T06:53:33.567Z,16.12
2018-01-08T06:56:01.074Z,16.45
2018-01-08T06:58:28.558Z,16.20
2018-01-08T07:00:56.046Z,16.20
2018-01-08T07:03:23.604Z,15.23
2018-01-08T07:05:51.902Z,16.23
2018-01-08T07:08:19.378Z,15.45
2018-01-08T07:10:47.763Z,15.13
2018-01-08T07:13:15.246Z,16.80
2018-01-08T07:15:42.748Z,14.55
2018-01-08T07:18:10.421Z,14.93
2018-01-08T07:20:38.682Z,15.75
2018-01-08T07:23:06.259Z,17.00
2018-01-08T07:25:34.575Z,15.48
2018-01-08T07:28:02.067Z,16.10
2018-01-08T07:30:29.549Z,15.00
2018-01-08T07:32:57.048Z,16.12
2018-01-08T07:35:24.538Z,15.60
2018-01-08T07:37:52.026Z,15.27
2018-01-08T07:40:19.525Z,14.27
2018-01-08T07:42:47.806Z,15.45
2018-01-08T07:45:15.290Z,14.60
2018-01-08T07:47:43.492Z,15.00
2018-01-08T07:50:10.966Z,15.02
2018-01-08T07:52:39.302Z,16.25
2018-01-08T07:55:07.106Z,15.77
2018-01-08T07:57:35.410Z,16.50
2018-01-08T08:00:02.902Z,17.08
2018-01-08T08:02:30.410Z,16.45
2018-01-08T08:04:58.061Z,15.10
2018-01-08T08:07:26.405Z,15.52
2018-01-08T08:09:53.977Z,16.12
2018-01-08T08:12:21.518Z,15.57
2018-01-08T08:14:49.015Z,15.60
2018-01-08T08:17:17.274Z,15.43
2018-01-08T08:19:44.783Z,15.50
2018-01-08T08:22:12.366Z,14.10
2018-01-08T08:24:39.866Z,15.38
2018-01-08T08:27:08.262Z,14.52
2018-01-08T08:29:36.514Z,14.82
2018-01-08T08:32:03.995Z,14.80
2018-01-08T08:34:32.567Z,14.77
2018-01-08T08:37:00.818Z,14.05
2018-01-08T08:39:28.315Z,14.23
2018-01-08T08:41:56.898Z,14.50
2018-01-08T08:44:24.457Z,14.40
2018-01-08T08:46:52.725Z,14.45
2018-01-08T08:49:20.250Z,15.98
2018-01-08T08:51:47.840Z,15.52
2018-01-08T08:54:15.368Z,14.75
2018-01-08T08:56:42.887Z,16.65
2018-01-08T08:59:10.387Z,14.73
2018-01-08T09:01:38.013Z,14.93
2018-01-08T09:04:05.550Z,16.45
2018-01-08T09:06:33.051Z,15.45
2018-01-08T09:09:00.534Z,14.93
2018-01-08T09:11:28.151Z,14.68
2018-01-08T09:13:55.638Z,13.95
2018-01-08T09:16:23.122Z,17.95
2018-01-08T09:18:51.344Z,13.95
2018-01-08T09:21:18.974Z,15.65
2018-01-08T09:23:47.266Z,15.38
2018-01-08T09:26:14.798Z,15.02
2018-01-08T09:28:42.354Z,15.75
2018-01-08T09:31:09.882Z,14.50
2018-01-08T09:33:37.429Z,13.75
2018-01-08T09:36:04.926Z,15.77
2018-01-08T09:38:32.482Z,14.65
2018-01-08T09:41:00.120Z,15.25
2018-01-08T09:43:27.703Z,16.35
2018-01-08T09:45:55.183Z,14.65
2018-01-08T09:48:23.615Z,13.40
2018-01-08T09:50:51.113Z,14.45
2018-01-08T09:53:19.463Z,15.75
2018-01-08T09:55:46.970Z,14.05
2018-01-08T09:58:15.230Z,16.33
2018-01-08T10:00:43.478Z,14.73
2018-01-08T10:03:22.870Z,15.10
2018-01-08T10:06:02.236Z,15.63
2018-01-08T10:08:41.754Z,14.02
2018-01-08T10:11:21.286Z,17.58
2018-01-08T10:14:01.491Z,14.90
2018-01-08T10:16:41.064Z,14.45
2018-01-08T10:19:20.515Z,14.32
2018-01-08T10:21:48.770Z,14.30
2018-01-08T10:24:16.248Z,15.30
2018-01-08T10:26:44.662Z,16.98
2018-01-08T10:29:12.150Z,15.43
2018-01-08T10:31:39.634Z,15.00
2018-01-08T10:34:07.154Z,14.38
2018-01-08T10:36:34.631Z,15.98
2018-01-08T10:39:02.164Z,16.30
2018-01-08T10:41:35.279Z,14.65
2018-01-08T10:44:08.455Z,14.35
2018-01-08T10:46:41.482Z,15.55
2018-01-08T10:49:15.471Z,15.75
2018-01-08T10:51:42.594Z,14.43
2018-01-08T10:54:10.203Z,16.48
2018-01-08T10:56:37.709Z,15.30
2018-01-08T10:59:05.218Z,14.93
2018-01-08T11:01:38.185Z,17.33
2018-01-08T11:04:05.699Z,16.00
2018-01-08T11:06:33.182Z,15.57
2018-01-08T11:09:01.431Z,16.25
2018-01-08T11:11:28.939Z,15.60
2018-01-08T11:13:56.418Z,15.75
2018-01-08T11:16:24.852Z,15.80
2018-01-08T11:18:52.640Z,15.07
2018-01-08T11:21:20.216Z,16.10
2018-01-08T11:23:47.744Z,13.45
2018-01-08T11:26:15.515Z,15.70
2018-01-08T11:28:43.032Z,16.30
2018-01-08T11:31:10.517Z,15.85
2018-01-08T11:33:38.099Z,18.27
2018-01-08T11:36:05.590Z,15.20
2018-01-08T11:38:33.838Z,14.35
2018-01-08T11:41:01.477Z,15.10
2018-01-08T11:43:28.941Z,15.95
2018-01-08T11:45:56.464Z,15.82
2018-01-08T11:48:23.962Z,14.45
2018-01-08T11:50:51.614Z,15.77
2018-01-08T11:53:19.302Z,13.73
2018-01-08T11:55:47.606Z,15.00
2018-01-08T11:58:15.866Z,15.20
2018-01-08T12:00:43.436Z,15.57
2018-01-08T12:03:11.821Z,16.23
2018-01-08T12:05:39.396Z,15.50
2018-01-08T12:08:07.683Z,14.65
2018-01-08T12:10:35.178Z,14.95
2018-01-08T12:13:02.674Z,14.05
2018-01-08T12:15:30.945Z,16.48
2018-01-08T12:17:58.469Z,15.70
2018-01-08T12:20:26.925Z,15.25
2018-01-08T12:22:54.462Z,14.98
2018-01-08T12:25:22.062Z,13.95
2018-01-08T12:27:49.558Z,15.82
2018-01-08T12:30:17.122Z,15.25
2018-01-08T12:32:45.378Z,17.50
2018-01-08T12:35:12.934Z,14.23
2018-01-08T12:37:40.476Z,13.55
2018-01-08T12:40:07.990Z,16.00
2018-01-08T12:42:36.308Z,14.27
2018-01-08T12:45:03.885Z,15.52
2018-01-08T12:47:32.942Z,15.75
2018-01-08T12:50:00.430Z,15.43
2018-01-08T12:52:27.968Z,16.10
2018-01-08T12:54:56.257Z,14.73
2018-01-08T12:57:24.519Z,14.05
2018-01-08T12:59:51.998Z,15.05
2018-01-08T13:02:19.514Z,16.27
2018-01-08T13:04:47.037Z,13.40
2018-01-08T13:07:14.634Z,13.50
2018-01-08T13:09:42.174Z,14.30
2018-01-08T13:12:09.701Z,14.68
2018-01-08T13:14:37.195Z,14.15
2018-01-08T13:17:05.483Z,15.38
2018-01-08T13:19:32.981Z,14.87
2018-01-08T13:22:00.526Z,15.43
2018-01-08T13:24:28.089Z,14.82
2018-01-08T13:26:55.729Z,15.23
2018-01-08T13:29:23.252Z,16.37
2018-01-08T13:31:50.761Z,15.77
2018-01-08T13:34:18.305Z,15.60
2018-01-08T13:36:45.826Z,14.52
2018-01-08T13:39:13.437Z,16.30
2018-01-08T13:41:40.926Z,15.35
2018-01-08T13:44:08.406Z,15.90
2018-01-08T13:46:35.922Z,16.37
2018-01-08T13:49:03.415Z,16.33
2018-01-08T13:51:31.034Z,15.75
2018-01-08T13:53:58.550Z,15.98
2018-01-08T13:56:26.038Z,14.38
2018-01-08T13:58:56.070Z,16.33
2018-01-08T14:01:24.415Z,15.95
2018-01-08T14:03:52.670Z,16.85
2018-01-08T14:06:20.147Z,16.98
2018-01-08T14:08:48.534Z,15.35
2018-01-08T14:11:16.857Z,17.10
2018-01-08T14:13:44.345Z,18.15
2018-01-08T14:16:11.842Z,17.17
2018-01-08T14:18:39.331Z,16.17
2018-01-08T14:21:06.938Z,17.85
2018-01-08T14:23:35.242Z,16.40
2018-01-08T14:26:02.740Z,17.27
2018-01-08T14:28:31.021Z,17.58
2018-01-08T14:30:58.646Z,16.15
2018-01-08T14:33:26.973Z,16.25
2018-01-08T14:35:54.484Z,16.12
2018-01-08T14:38:22.145Z,16.77
2018-01-08T14:40:49.634Z,17.73
2018-01-08T14:43:17.234Z,15.50
2018-01-08T14:45:45.644Z,15.93
2018-01-08T14:48:13.970Z,16.87
2018-01-08T14:50:41.450Z,15.40
2018-01-08T14:53:09.738Z,16.92
2018-01-08T14:55:37.981Z,14.35
2018-01-08T14:58:05.488Z,15.73
2018-01-08T15:00:33.052Z,16.15
2018-01-08T15:03:00.530Z,15.75
2018-01-08T15:05:28.014Z,16.83
2018-01-08T15:07:55.569Z,16.30
2018-01-08T15:10:23.078Z,16.50
2018-01-08T15:12:51.349Z,16.67
2018-01-08T15:15:19.017Z,16.33
2018-01-08T15:17:46.570Z,15.48
2018-01-08T15:20:14.074Z,17.85
2018-01-08T15:22:41.582Z,16.48
2018-01-08T15:25:09.827Z,16.50
2018-01-08T15:27:37.302Z,16.75
2018-01-08T15:30:05.591Z,16.60
2018-01-08T15:32:33.996Z,18.15
2018-01-08T15:35:01.490Z,16.27
2018-01-08T15:37:28.990Z,16.55
2018-01-08T15:39:57.238Z,16.48
2018-01-08T15:42:24.953Z,17.37
2018-01-08T15:44:52.490Z,18.17
2018-01-08T15:47:20.734Z,17.48
2018-01-08T15:49:48.221Z,16.92
2018-01-08T15:52:15.854Z,18.40
2018-01-08T15:54:43.347Z,18.75
2018-01-08T15:57:11.101Z,16.42
2018-01-08T15:59:38.608Z,17.52
2018-01-08T16:02:06.094Z,18.55
2018-01-08T16:04:33.582Z,17.95
2018-01-08T16:07:01.947Z,18.48
2018-01-08T16:09:30.222Z,17.55
2018-01-08T16:11:58.672Z,19.73
2018-01-08T16:14:26.364Z,18.77
2018-01-08T16:16:54.732Z,18.10
2018-01-08T16:19:22.206Z,18.95
2018-01-08T16:21:50.483Z,18.62
2018-01-08T16:24:18.770Z,19.02
2018-01-08T16:26:46.262Z,18.90
2018-01-08T16:29:13.838Z,19.37
2018-01-08T16:31:41.321Z,18.60
2018-01-08T16:34:08.798Z,18.70
2018-01-08T16:36:37.182Z,18.10
2018-01-08T16:39:04.688Z,17.75
2018-01-08T16:41:32.247Z,19.27
2018-01-08T16:43:59.786Z,18.87
2018-01-08T16:46:27.278Z,18.15
2018-01-08T16:48:54.766Z,18.52
2018-01-08T16:51:23.061Z,19.90
2018-01-08T16:53:51.675Z,19.02
2018-01-08T16:56:20.585Z,19.50
2018-01-08T16:58:48.074Z,20.48
2018-01-08T17:01:15.581Z,18.40
2018-01-08T17:04:00.539Z,18.23
2018-01-08T17:06:28.133Z,18.33
2018-01-08T17:08:56.415Z,18.83
2018-01-08T17:11:23.882Z,19.42
2018-01-08T17:13:51.399Z,18.77
2018-01-08T17:16:18.882Z,20.23
2018-01-08T17:18:46.482Z,19.10
2018-01-08T17:21:14.058Z,19.67
2018-01-08T17:23:42.310Z,20.48
2018-01-08T17:26:09.804Z,18.80
2018-01-08T17:28:38.131Z,17.55
2018-01-08T17:31:06.414Z,20.12
2018-01-08T17:33:33.894Z,18.65
2018-01-08T17:36:02.235Z,18.55
2018-01-08T17:38:29.710Z,18.65
2018-01-08T17:40:57.216Z,18.65
2018-01-08T17:43:24.752Z,20.00
2018-01-08T17:45:53.213Z,19.90
2018-01-08T17:48:21.485Z,20.70
2018-01-08T17:50:49.112Z,18.12
2018-01-08T17:53:16.606Z,18.80
2018-01-08T17:55:44.090Z,19.50
2018-01-08T17:58:12.387Z,19.65
2018-01-08T18:00:39.881Z,20.40
2018-01-08T18:03:07.368Z,20.62
2018-01-08T18:05:34.884Z,21.30
2018-01-08T18:08:02.382Z,21.15
2018-01-08T18:10:29.861Z,20.88
2018-01-08T18:12:57.375Z,21.77
2018-01-08T18:15:24.858Z,21.05
2018-01-08T18:17:52.338Z,19.45
2018-01-08T18:20:19.853Z,20.12
2018-01-08T18:22:47.334Z,20.55
2018-01-08T18:25:14.917Z,19.27
2018-01-08T18:27:42.442Z,19.67
2018-01-08T18:30:09.959Z,21.50
2018-01-08T18:32:37.446Z,21.08
2018-01-08T18:35:05.025Z,19.98
2018-01-08T18:37:32.538Z,21.98
2018-01-08T18:40:00.150Z,20.98
2018-01-08T18:42:27.758Z,21.23
2018-01-08T18:44:55.275Z,20.23
2018-01-08T18:47:23.530Z,21.15
2018-01-08T18:49:51.030Z,20.85
2018-01-08T18:52:18.518Z,20.45
2018-01-08T18:54:46.051Z,19.83
2018-01-08T18:57:13.575Z,21.90
2018-01-08T18:59:41.062Z,21.80
2018-01-08T19:02:08.655Z,21.70
2018-01-08T19:04:36.163Z,22.85
2018-01-08T19:07:04.482Z,20.80
2018-01-08T19:09:31.970Z,21.23
2018-01-08T19:11:59.462Z,21.08
2018-01-08T19:14:27.844Z,22.15
2018-01-08T19:16:55.366Z,21.92
2018-01-08T19:19:22.959Z,21.35
2018-01-08T19:21:50.485Z,20.98
2018-01-08T19:24:19.586Z,21.87
2018-01-08T19:26:47.078Z,20.70
2018-01-08T19:29:15.330Z,22.25
2018-01-08T19:31:42.929Z,20.92
2018-01-08T19:34:11.217Z,19.55
2018-01-08T19:36:38.706Z,20.12
2018-01-08T19:39:06.181Z,21.17
2018-01-08T19:41:33.734Z,19.85
2018-01-08T19:44:01.221Z,21.50
2018-01-08T19:46:29.470Z,20.58
2018-01-08T19:48:57.033Z,19.98
2018-01-08T19:51:24.565Z,22.98
2018-01-08T19:53:52.122Z,19.05
2018-01-08T19:56:19.684Z,20.75
2018-01-08T19:58:47.259Z,20.60
2018-01-08T20:01:14.745Z,22.40
2018-01-08T20:03:42.236Z,20.10
2018-01-08T20:06:09.945Z,21.98
2018-01-08T20:08:37.476Z,22.30
2018-01-08T20:11:05.066Z,21.98
2018-01-08T20:13:32.732Z,20.50
2018-01-08T20:16:00.225Z,22.17
2018-01-08T20:18:27.814Z,23.05
2018-01-08T20:20:55.338Z,21.50
2018-01-08T20:23:23.627Z,21.58
2018-01-08T20:25:51.902Z,22.00
2018-01-08T20:28:20.252Z,20.92
2018-01-08T20:30:47.824Z,22.83
2018-01-08T20:33:16.095Z,21.85
2018-01-08T20:35:43.705Z,22.98
2018-01-08T20:38:11.222Z,22.17
2018-01-08T20:40:39.479Z,23.60
2018-01-08T20:43:06.982Z,21.58
2018-01-08T20:45:34.563Z,24.05
2018-01-08T20:48:02.082Z,22.48
2018-01-08T20:50:30.427Z,21.62
2018-01-08T20:52:58.757Z,22.30
2018-01-08T20:55:26.238Z,22.75
2018-01-08T20:57:53.796Z,22.30
2018-01-08T21:00:21.305Z,23.27
2018-01-08T21:02:49.566Z,23.20
2018-01-08T21:05:17.058Z,23.05
2018-01-08T21:07:45.338Z,23.35
2018-01-08T21:10:13.609Z,25.12
2018-01-08T21:12:41.932Z,24.58
2018-01-08T21:15:09.471Z,23.73
2018-01-08T21:17:37.050Z,23.02
2018-01-08T21:20:04.602Z,23.25
2018-01-08T21:22:32.114Z,22.70
2018-01-08T21:25:00.378Z,23.33
2018-01-08T21:27:27.885Z,21.20
2018-01-08T21:29:55.362Z,21.40
2018-01-08T21:32:22.871Z,23.95
2018-01-08T21:34:51.288Z,22.40
2018-01-08T21:37:18.806Z,22.40
2018-01-08T21:39:47.085Z,22.33
2018-01-08T21:42:15.367Z,21.73
2018-01-08T21:44:43.725Z,21.48
2018-01-08T21:47:12.001Z,22.98
2018-01-08T21:49:39.506Z,20.25
2018-01-08T21:52:06.990Z,23.50
2018-01-08T21:54:34.498Z,23.17
2018-01-08T21:57:02.785Z,23.52
2018-01-08T21:59:31.120Z,20.98
2018-01-08T22:01:59.586Z,23.90
2018-01-08T22:04:27.141Z,24.92
2018-01-08T22:06:54.685Z,23.38
2018-01-08T22:09:22.175Z,22.98
2018-01-08T22:11:49.687Z,21.33
2018-01-08T22:14:18.524Z,23.45
2018-01-08T22:16:46.054Z,22.27
2018-01-08T22:19:13.550Z,21.75
2018-01-08T22:21:41.091Z,21.55
2018-01-08T22:24:09.488Z,24.05
2018-01-08T22:26:37.038Z,24.55
2018-01-08T22:29:04.878Z,22.40
2018-01-08T22:31:32.402Z,21.60
2018-01-08T22:34:00.678Z,21.10
2018-01-08T22:36:28.955Z,24.17
2018-01-08T22:38:57.211Z,22.02
2018-01-08T22:41:24.787Z,23.23
2018-01-08T22:43:52.291Z,22.92
2018-01-08T22:46:19.863Z,22.17
2018-01-08T22:48:47.348Z,22.35
2018-01-08T22:51:14.851Z,22.77
2018-01-08T22:53:42.348Z,24.40
2018-01-08T22:56:09.842Z,22.55
2018-01-08T22:58:38.165Z,23.77
2018-01-08T23:01:05.682Z,23.08
2018-01-08T23:03:33.946Z,22.52
2018-01-08T23:06:01.442Z,21.67
2018-01-08T23:08:28.914Z,22.40
2018-01-08T23:10:56.471Z,23.90
2018-01-08T23:13:24.021Z,22.35
2018-01-08T23:15:51.633Z,23.98
2018-01-08T23:18:19.130Z,21.50
2018-01-08T23:20:46.694Z,24.80
2018-01-08T23:23:14.202Z,22.17
2018-01-08T23:25:41.693Z,23.98
2018-01-08T23:28:09.954Z,24.40
2018-01-08T23:30:37.458Z,22.75
2018-01-08T23:33:04.942Z,22.95
2018-01-08T23:35:32.439Z,21.35
2018-01-08T23:38:00.717Z,22.35
2018-01-08T23:40:28.316Z,22.83
2018-01-08T23:42:56.246Z,24.55
2018-01-08T23:45:25.107Z,23.50
2018-01-08T23:47:52.608Z,22.27
2018-01-08T23:50:21.010Z,24.23
2018-01-08T23:52:49.075Z,24.85
2018-01-08T23:55:17.871Z,24.33
2018-01-08T23:57:45.570Z,25.42
